Lucas Castro

Recruteur - Portimonense
3 Avr 2027
Samedi
Processus

Personnalité

Adaptabilité (7) Ambition (20) Controverse (13) Loyauté (11) Pression (5) Professionnalisme (7) Sportivité (12) Tempérament (19)

Profil

Style d'entraînement Démocratique
Diplôme Continental C
Détermination 5
Gestion des joueurs 12
Motivation 7
Discipline 6
Satisfaction professionnelle
57%
Fatigue
0%
Rôle Recruteur
Salaire 63.7K p/s
Contrat 14.03.2029

Performance

Comportement Bon
Efficacité de l'entraînement
25%
Développement des joueurs
35%
Prévention des blessures
60%
Mise en place tactique
50%

Événements récents

A participé à une réunion de recrutement 7j
A recommandé une cible de transfert 7j
Anniversaire 7j
A participé à une réunion de recrutement 14j
A recommandé une cible de transfert 14j
A participé à une réunion de recrutement 21j
A participé à une réunion de recrutement 21j
A évalué un joueur 21j

Suivi en cours

109
Joueur Club Statut Capacité Confiance Observé Dernière observation Dernier vote
Jay Matete Milton Keynes Dons Actif 109 / 117 40% 1 10.03.2027 -
Lewis Richards Crawley Town Actif 102 / 91 40% 1 10.03.2027 -
Ivan Bendera Epicentr Actif 84 / 100 40% 1 10.03.2027 -
Moses Twum Haras El Hodoud Actif 110 / 100 40% 1 08.03.2027 -
George Nurse Cheltenham Town Actif 91 / 80 40% 1 08.03.2027 -
Rio Adébísí Peterborough United Actif 104 / 99 40% 1 08.03.2027 -
Charlie Webster Burton Albion Actif 107 / 113 40% 1 07.03.2027 -
Charlie Whitaker Tranmere Rovers Actif 97 / 103 40% 1 07.03.2027 -
Kyreece Lisbie Colchester United Actif 114 / 115 40% 1 07.03.2027 -
Zakaria Ajoughlal Renaissance Actif 101 / 102 40% 1 06.03.2027 -
Albek Gongapshev Shinnik Actif 101 / 95 40% 1 06.03.2027 -
Liam Bennett Cambridge United Actif 101 / 100 40% 1 06.03.2027 -
Mark Helm Fleetwood Town Actif 99 / 100 40% 2 05.03.2027 -
Matías Lacava Vizela Actif 112 / 101 40% 1 05.03.2027 -
Đorđe Pantelić Spartak Kostroma Actif 103 / 102 40% 1 05.03.2027 -
Mohammed Hussein Hearts of Oak Actif 89 / 91 40% 1 04.03.2027 -
Siphelele Mthembu Maritzburg United Actif 89 / 91 40% 1 04.03.2027 -
Rodrigo Marquês Oliveirense Actif 88 / 97 40% 1 04.03.2027 -
Amílcar Silva Sigma Olomouc Actif 91 / 96 40% 2 29.12.2026 -
Josué Tiendrébéogo IMT Actif 99 / 118 40% 1 29.12.2026 -
Hamdi Akujobi Jomo Cosmos Actif 105 / 98 40% 1 29.12.2026 -
Nikolay Boyarkin Salyut Actif 85 / 96 40% 1 27.12.2026 -
Bojica Nikčević Radnicki 1923 Actif 113 / 110 40% 1 27.12.2026 -
Daniil Gurchenko Spartak Tambov Actif 81 / 95 40% 1 27.12.2026 -
Maksym Luniov Chornomorets Actif 113 / 102 40% 3 26.12.2026 -
Felix Kudus Hasaacas Actif 95 / 99 40% 2 26.12.2026 -
Vitinho Giresunspor Actif 102 / 99 40% 1 26.12.2026 -
Danil Lipovoy Ufa Actif 91 / 97 40% 2 25.12.2026 -
Eric Ocansey Javor-Matis Actif 116 / 111 40% 2 25.12.2026 -
Sebastian Mailat Botosani Actif 120 / 115 40% 2 25.12.2026 -
Guilherme Santos Feirense Actif 91 / 98 40% 2 19.12.2026 -
Owen Bailey Doncaster Rovers Actif 113 / 103 40% 1 19.12.2026 -
Petr Juliš Slovan Liberec Actif 115 / 103 40% 2 18.12.2026 -
Lucas Barros Vojvodina Actif 121 / 100 40% 1 18.12.2026 -
Lucca Ceará Actif 116 / 114 40% 1 18.12.2026 -
Lucas Henrique Prykarpattia Actif 85 / 84 40% 3 15.12.2026 -
Louay Ben Hassine Radnicki 1923 Actif 101 / 99 40% 2 15.12.2026 -
Denys Rezepov Nyva Actif 89 / 100 40% 1 14.12.2026 -
Bassem Ghaly Masr El Makasa Actif 114 / 118 40% 2 13.12.2026 -
Denver Hume Fleetwood Town Actif 105 / 105 40% 2 13.12.2026 Plus d'infos
Danyil Alefirenko Chornomorets Actif 103 / 100 40% 1 13.12.2026 -
Udoka Godwin-Malife Burton Albion Actif 107 / 105 40% 1 12.12.2026 -
Lazar Mijović Cukaricki Actif 110 / 104 40% 2 11.12.2026 -
Phakamani Mahlambi Bloemfontein Celtic Actif 110 / 105 40% 1 11.12.2026 -
Yann Kitala Vizela Actif 109 / 99 40% 1 11.12.2026 -
Oscar Garrido Dukla Prague Actif 122 / 112 40% 2 09.12.2026 -
André Vidigal ENPPI Actif 102 / 98 40% 2 07.12.2026 -
Fabián Suárez Chalares Aguilas Doradas Actif 118 / 110 40% 2 07.12.2026 Plus d'infos
Soltmurad Bakaev Rodina Refusé 114 / 112 40% 1 07.12.2026 Plus d'infos
Braian Álvarez Arsenal Tula Actif 100 / 102 40% 2 04.12.2026 -
Lazar Tufegdžić Cukaricki Actif 111 / 118 40% 1 04.12.2026 -
Bruno Zdunić Dugopolje Actif 113 / 94 40% 1 27.11.2026 -
Mpho Mathebula Bloemfontein Celtic Actif 100 / 96 40% 2 25.11.2026 -
Đorđe Jovanović Radnik Surdulica Actif 114 / 111 40% 1 25.11.2026 -
Lucas Rodríguez Morelia Actif 121 / 123 40% 2 23.11.2026 -
Jack Aitchison Grodig Actif 104 / 95 40% 1 23.11.2026 -
Alejandro Andrade Morelia Actif 115 / 112 40% 1 20.11.2026 -
Toni Kolega Sibenik Actif 108 / 111 40% 1 20.11.2026 -
Rodrigo González Mitre Actif 112 / 114 40% 2 19.11.2026 -
Siyanda Msani University of Pretoria Actif 101 / 103 40% 1 19.11.2026 -
Ernest Agyiri Randers Actif 97 / 91 40% 1 19.11.2026 -
Maximiliano Meléndez Chacarita Juniors Actif 118 / 119 40% 1 17.11.2026 -
Gift Mothiba Black Aces Actif 89 / 107 40% 1 15.11.2026 -
Dudu Vitória Actif 120 / 119 40% 1 11.11.2026 -
Tobías Bovone Deportivo Pereira Actif 115 / 110 40% 3 10.11.2026 -
René López Morelia Actif 114 / 96 40% 1 10.11.2026 -
Federico Pérez Agropecuario Argentino Actif 110 / 113 40% 1 10.11.2026 -
Franco Fagúndez Estudiantes Actif 121 / 116 40% 2 09.11.2026 -
Ramazan Gadjimuradov Chelyabinsk Actif 113 / 101 40% 1 09.11.2026 -
Diego Chávez Deportivo Pasto Actif 118 / 110 40% 2 08.11.2026 -
João Dalla Corte Internacional Actif 95 / 97 40% 1 06.11.2026 -
Esneyder Mena Deportivo Pasto Actif 116 / 120 40% 1 05.11.2026 -
Julián Palacios Envigado Actif 111 / 113 40% 1 05.11.2026 -
Michael Vadulli Audax Italiano Actif 115 / 114 40% 2 04.11.2026 -
Tomás González Estudiantes Actif 109 / 115 40% 1 04.11.2026 -
Gift Mokoena Free State Stars Actif 97 / 98 40% 1 04.11.2026 -
Zahid Muñoz Morelia Actif 99 / 101 40% 2 02.11.2026 -
Juan Esteban Ávalo Aguilas Doradas Actif 116 / 106 40% 1 02.11.2026 -
Gabriel Castillo Cortulua Actif 113 / 103 40% 2 31.10.2026 -
Agustín Venezia Iquique Actif 106 / 112 40% 1 30.10.2026 -
Suleiman Abdullahi Military Production Actif 105 / 87 40% 1 27.10.2026 -
Federico Versaci Talleres Actif 112 / 110 40% 1 27.10.2026 -
Ilmari Niskanen Orebro Actif 99 / 104 40% 1 26.10.2026 -
Néider Barona Jaguares Actif 103 / 100 40% 2 25.10.2026 -
Didier Dawson Envigado Actif 105 / 108 40% 1 23.10.2026 -
Vladyslav Sharai Veres Actif 97 / 102 40% 1 23.10.2026 -
Valentín Fenoglio Estudiantes Actif 108 / 120 40% 1 23.10.2026 -
Lucio Castillo Colegiales Actif 108 / 109 40% 1 20.10.2026 -
Facundo Taborda Racing Actif 110 / 111 40% 1 15.10.2026 -
Lucas Arce Godoy Cruz Actif 123 / 117 40% 1 15.10.2026 -
John Méndez Deportivo Pasto Actif 104 / 103 40% 1 15.10.2026 -
Tobías Leiva Estudiantes Actif 114 / 123 40% 1 13.10.2026 -
Mario Sanabria Chacarita Juniors Actif 117 / 107 40% 1 09.10.2026 -
Daniel Amador Chiapas Actif 96 / 109 40% 1 09.10.2026 -
Facundo Castet Colón Actif 108 / 113 40% 1 06.10.2026 -
Franco Malagueño Colegiales Actif 103 / 112 40% 2 14.09.2026 -
José Caldera Deportivo Cali Actif 110 / 111 40% 1 14.09.2026 -
Salvador Manríquez Dorados Actif 115 / 101 40% 1 13.09.2026 -
Rodrigo Ramírez Nueva Chicago Actif 110 / 104 40% 1 13.09.2026 -
Rômulo Atlético Mineiro Actif 103 / 106 40% 1 13.09.2026 -
Thiago Calone All Boys Actif 117 / 109 40% 1 08.09.2026 -
Juan Yangali San Telmo Actif 115 / 107 40% 1 08.09.2026 -
Juan Salas Patronato Actif 117 / 113 40% 1 08.09.2026 -
Igor Stefanović Leixões Actif 93 / 96 72% 1 31.08.2026 Approuver
Santiago Toloza O'Higgins Actif 128 / 125 40% 1 03.08.2026 -
Bryan Rovira Deportes Tolima Actif 117 / 125 40% 1 03.08.2026 -
Nahuel Furtado Wanderers Actif 122 / 119 40% 1 03.08.2026 -
Louback Atlético Mineiro Actif 86 / 86 40% 1 01.08.2026 -
Rafael Lima Bragantino Actif 80 / 98 40% 1 01.08.2026 -